Time;durP1;ratioP1;P1;durP2;ratioP2;P2;SDS_P1;SDS_P2;PMS_P1;PMS_P2;Temp;Humidity;BMP_temperature;BMP_pressure;BME280_temperature;BME280_humidity;BME280_pressure;Samples;Min_cycle;Max_cycle;Signal;HPM_P1;HPM_P2
2021/09/07 00:00:16;;;;;;;16.37;12.27;;;;;;;15.04;100.00;96613.97;1040205;28;20022;-68
2021/09/07 00:00:46;;;;;;;15.53;11.60;;;;;;;15.07;100.00;96605.34;1040247;28;20116;-68
2021/09/07 00:01:16;;;;;;;17.03;12.27;;;;;;;15.10;100.00;96602.09;1040160;28;20047;-68
2021/09/07 00:01:47;;;;;;;15.37;12.07;;;;;;;15.07;100.00;96610.72;1036055;28;20471;-68
2021/09/07 00:02:17;;;;;;;18.60;12.13;;;;;;;15.09;100.00;96611.25;1040206;28;20032;-68
2021/09/07 00:02:48;;;;;;;20.37;13.07;;;;;;;15.05;100.00;96610.22;1044386;28;20029;-68
2021/09/07 00:03:18;;;;;;;18.17;11.73;;;;;;;15.03;100.00;96609.69;1044348;28;20020;-68
2021/09/07 00:03:49;;;;;;;17.83;13.03;;;;;;;15.03;100.00;96605.09;1044684;28;20028;-69
2021/09/07 00:04:19;;;;;;;19.23;13.20;;;;;;;15.02;100.00;96608.09;1044357;28;20017;-69
2021/09/07 00:04:49;;;;;;;16.83;11.77;;;;;;;15.00;100.00;96607.59;1040222;28;20021;-69
2021/09/07 00:05:20;;;;;;;18.47;11.33;;;;;;;15.00;100.00;96603.00;1040182;28;20025;-69
2021/09/07 00:05:50;;;;;;;17.53;12.23;;;;;;;15.02;100.00;96608.09;1040235;28;20025;-68
2021/09/07 00:06:21;;;;;;;16.93;12.23;;;;;;;14.99;100.00;96606.75;1044446;28;20021;-68
2021/09/07 00:06:51;;;;;;;16.77;12.57;;;;;;;14.98;100.00;96604.34;1044579;28;20032;-69
2021/09/07 00:07:24;;;;;;;24.23;13.23;;;;;;;14.97;100.00;96606.25;1044687;28;20020;-69
2021/09/07 00:07:54;;;;;;;18.30;12.20;;;;;;;14.95;100.00;96603.03;1044477;28;20035;-69
2021/09/07 00:08:24;;;;;;;16.67;12.73;;;;;;;14.94;100.00;96601.41;1044611;28;20362;-68
2021/09/07 00:08:55;;;;;;;18.03;12.87;;;;;;;14.95;100.00;96600.34;1044292;28;20373;-68
2021/09/07 00:09:25;;;;;;;16.67;12.83;;;;;;;14.93;100.00;96607.09;1044295;28;20383;-69
2021/09/07 00:09:56;;;;;;;15.90;12.07;;;;;;;14.94;100.00;96604.09;1044334;28;20438;-68
2021/09/07 00:10:26;;;;;;;20.97;12.80;;;;;;;14.93;100.00;96593.63;1044119;28;20413;-68
2021/09/07 00:10:57;;;;;;;20.77;13.30;;;;;;;14.93;100.00;96591.75;1044504;28;20496;-68
2021/09/07 00:11:27;;;;;;;20.53;13.30;;;;;;;14.95;100.00;96596.88;1044655;28;20017;-68
2021/09/07 00:11:57;;;;;;;18.37;12.90;;;;;;;14.94;100.00;96589.84;1044657;28;20024;-68
2021/09/07 00:12:28;;;;;;;20.23;13.23;;;;;;;14.94;100.00;96590.66;1044648;28;20366;-68
2021/09/07 00:12:58;;;;;;;17.97;12.97;;;;;;;14.94;100.00;96590.66;1044621;28;20009;-69
2021/09/07 00:13:29;;;;;;;19.53;12.77;;;;;;;14.96;100.00;96593.88;1044627;28;20059;-68
2021/09/07 00:13:59;;;;;;;18.20;12.37;;;;;;;14.94;100.00;96598.72;1044620;28;20012;-68
2021/09/07 00:14:30;;;;;;;20.07;12.97;;;;;;;14.96;100.00;96593.06;1044573;28;20025;-68
2021/09/07 00:15:01;;;;;;;17.53;12.83;;;;;;;14.95;100.00;96591.47;1044294;28;20052;-68
2021/09/07 00:15:31;;;;;;;18.88;12.93;;;;;;;14.95;100.00;96589.59;1040009;28;20013;-68
2021/09/07 00:16:02;;;;;;;16.33;12.07;;;;;;;14.98;100.00;96586.31;1040198;28;20025;-68
2021/09/07 00:16:32;;;;;;;18.90;12.37;;;;;;;14.99;100.00;96587.91;1040369;28;20395;-68
2021/09/07 00:17:03;;;;;;;18.63;12.23;;;;;;;15.02;100.00;96584.66;1040079;28;20470;-68
2021/09/07 00:17:33;;;;;;;18.50;12.67;;;;;;;15.04;100.00;96589.75;1044274;28;20504;-68
2021/09/07 00:18:04;;;;;;;18.93;13.40;;;;;;;15.03;100.00;96585.47;1044268;28;20024;-68
2021/09/07 00:18:34;;;;;;;16.87;12.60;;;;;;;15.03;100.00;96580.09;1044307;28;20020;-68
2021/09/07 00:19:05;;;;;;;19.63;11.83;;;;;;;15.06;100.00;96572.25;1044537;28;20024;-68
2021/09/07 00:19:35;;;;;;;16.73;12.47;;;;;;;15.04;100.00;96573.59;1044564;28;20020;-68
2021/09/07 00:20:07;;;;;;;19.10;13.20;;;;;;;15.07;100.00;96589.19;1044409;28;20016;-68
2021/09/07 00:20:37;;;;;;;19.33;13.15;;;;;;;15.07;100.00;96590.00;1044611;28;20098;-68
2021/09/07 00:21:08;;;;;;;17.03;12.60;;;;;;;15.05;100.00;96576.03;1044235;28;20436;-68
2021/09/07 00:21:38;;;;;;;17.17;12.57;;;;;;;15.03;100.00;96582.78;1044206;28;20048;-68
2021/09/07 00:22:09;;;;;;;17.53;13.03;;;;;;;15.06;100.00;96577.63;1044093;28;20037;-68
2021/09/07 00:22:39;;;;;;;17.27;12.50;;;;;;;15.06;100.00;96580.31;1040431;28;20068;-68
2021/09/07 00:23:09;;;;;;;20.13;12.53;;;;;;;15.06;100.00;96587.59;1040292;28;20056;-68
2021/09/07 00:23:40;;;;;;;16.40;12.60;;;;;;;15.03;100.00;96580.88;1040425;28;20033;-68
2021/09/07 00:24:10;;;;;;;16.83;12.60;;;;;;;15.03;100.00;96580.88;1040129;28;20021;-68
2021/09/07 00:24:41;;;;;;;18.57;13.37;;;;;;;15.05;100.00;96583.31;1040029;28;20026;-68
2021/09/07 00:25:11;;;;;;;17.07;13.10;;;;;;;15.03;100.00;96583.56;1040006;28;20029;-68
2021/09/07 00:25:41;;;;;;;16.77;12.67;;;;;;;15.07;100.00;96581.13;1031824;28;20026;-68
2021/09/07 00:26:12;;;;;;;16.80;12.57;;;;;;;15.07;100.00;96584.63;1031968;28;20336;-68
2021/09/07 00:26:42;;;;;;;19.33;13.43;;;;;;;15.04;100.00;96576.28;1032352;28;20018;-68
2021/09/07 00:27:13;;;;;;;20.33;13.37;;;;;;;15.04;100.00;96585.16;1030682;28;20034;-68
2021/09/07 00:27:43;;;;;;;17.17;12.67;;;;;;;15.07;100.00;96581.94;1036005;28;20029;-68
2021/09/07 00:28:13;;;;;;;18.40;13.60;;;;;;;15.06;100.00;96588.41;1040087;28;20036;-68
2021/09/07 00:28:44;;;;;;;18.53;11.83;;;;;;;15.06;100.00;96576.84;1040019;28;20356;-68
2021/09/07 00:29:14;;;;;;;18.03;13.60;;;;;;;15.05;100.00;96588.69;1040364;28;20033;-69
2021/09/07 00:29:45;;;;;;;22.63;14.10;;;;;;;15.02;100.00;96581.97;1040310;28;20391;-68
2021/09/07 00:30:15;;;;;;;20.00;12.63;;;;;;;15.01;100.00;96580.38;1040399;28;20048;-68
2021/09/07 00:30:46;;;;;;;18.83;13.00;;;;;;;15.02;100.00;96576.59;1040344;28;20034;-68
2021/09/07 00:31:16;;;;;;;16.97;12.83;;;;;;;15.02;100.00;96590.06;1040032;28;20040;-68
2021/09/07 00:31:46;;;;;;;16.93;12.47;;;;;;;15.01;100.00;96579.56;1039956;28;20026;-68
2021/09/07 00:32:17;;;;;;;16.40;12.57;;;;;;;15.00;100.00;96589.53;1036029;28;20026;-68
2021/09/07 00:32:47;;;;;;;20.13;12.97;;;;;;;14.96;100.00;96583.13;1031928;28;20403;-68
2021/09/07 00:33:18;;;;;;;22.97;13.23;;;;;;;14.95;100.00;96578.81;1027840;28;20030;-69
2021/09/07 00:33:48;;;;;;;17.17;12.67;;;;;;;14.97;100.00;96587.41;1028049;28;20050;-68
2021/09/07 00:34:19;;;;;;;21.17;13.10;;;;;;;14.95;100.00;96580.72;1032642;28;20097;-68
2021/09/07 00:34:50;;;;;;;18.07;13.33;;;;;;;15.01;100.00;96577.69;1035818;28;20568;-68
2021/09/07 00:35:22;;;;;;;20.73;12.77;;;;;;;15.00;100.00;96570.69;1040113;28;20029;-68
2021/09/07 00:35:52;;;;;;;16.55;11.75;;;;;;;14.98;100.00;96570.16;1039969;28;20493;-68
2021/09/07 00:36:23;;;;;;;17.00;12.43;;;;;;;14.96;100.00;96582.31;1040057;28;20026;-68
2021/09/07 00:36:53;;;;;;;18.43;12.63;;;;;;;14.97;100.00;96573.94;1040353;28;20014;-69
2021/09/07 00:37:23;;;;;;;17.47;12.23;;;;;;;14.98;100.00;96578.25;1044264;28;20028;-68
2021/09/07 00:37:54;;;;;;;16.10;12.57;;;;;;;14.98;100.00;96585.50;1044106;28;20051;-69
2021/09/07 00:38:24;;;;;;;17.63;12.50;;;;;;;14.98;100.00;96575.53;1040341;28;20051;-68
2021/09/07 00:38:55;;;;;;;15.93;11.93;;;;;;;14.97;100.00;96573.94;1040285;28;20021;-68
2021/09/07 00:39:25;;;;;;;19.40;12.30;;;;;;;14.98;100.00;96580.94;1040023;28;20029;-68
2021/09/07 00:39:55;;;;;;;20.47;11.37;;;;;;;14.98;100.00;96580.94;1040004;28;20026;-68
2021/09/07 00:40:26;;;;;;;16.43;12.00;;;;;;;14.93;100.00;96580.97;1036009;28;20014;-68
2021/09/07 00:40:56;;;;;;;21.00;11.93;;;;;;;14.92;100.00;96573.19;1032031;28;20435;-69
2021/09/07 00:41:27;;;;;;;17.80;12.00;;;;;;;14.93;100.00;96580.97;1036020;28;20025;-68
2021/09/07 00:41:57;;;;;;;17.10;11.83;;;;;;;14.92;100.00;96574.00;1036002;28;20471;-69
2021/09/07 00:42:28;;;;;;;18.93;11.80;;;;;;;14.90;100.00;96578.88;1040709;28;20114;-68
2021/09/07 00:42:58;;;;;;;17.93;11.97;;;;;;;14.89;100.00;96574.53;1044420;28;20025;-68
2021/09/07 00:43:29;;;;;;;16.93;12.20;;;;;;;14.89;100.00;96569.16;1044050;28;20061;-68
2021/09/07 00:43:59;;;;;;;18.13;12.93;;;;;;;14.91;100.00;96572.41;1044104;28;20033;-68
2021/09/07 00:44:29;;;;;;;17.40;12.30;;;;;;;14.92;100.00;96578.56;1044170;28;20261;-68
2021/09/07 00:45:01;;;;;;;16.00;12.20;;;;;;;14.89;100.00;96581.81;1044242;28;20024;-68
2021/09/07 00:45:31;;;;;;;18.90;12.27;;;;;;;14.83;100.00;96575.69;1044464;28;20028;-71
2021/09/07 00:46:02;;;;;;;17.53;12.27;;;;;;;14.83;100.00;96581.06;1044421;28;20021;-68
2021/09/07 00:46:32;;;;;;;18.10;12.37;;;;;;;14.82;100.00;96571.41;1044186;28;20013;-67
2021/09/07 00:47:06;;;;;;;16.17;12.10;;;;;;;14.82;100.00;96582.97;1044079;28;20514;-68
2021/09/07 00:47:37;;;;;;;19.73;12.45;;;;;;;14.81;100.00;96575.19;1044154;28;20489;-68
2021/09/07 00:48:07;;;;;;;19.00;12.57;;;;;;;14.82;100.00;96574.09;1044138;28;20099;-68
2021/09/07 00:48:38;;;;;;;19.40;12.47;;;;;;;14.79;100.00;96566.56;1044433;28;20469;-68
2021/09/07 00:49:08;;;;;;;19.07;12.17;;;;;;;14.76;100.00;96572.53;1043978;28;20013;-67
2021/09/07 00:49:39;;;;;;;17.07;12.10;;;;;;;14.76;100.00;96575.22;1044182;28;20025;-67
2021/09/07 00:50:10;;;;;;;16.80;11.80;;;;;;;14.74;100.00;96578.19;1044117;28;20025;-67
2021/09/07 00:50:40;;;;;;;18.90;11.50;;;;;;;14.74;100.00;96570.13;1044070;28;20025;-67
2021/09/07 00:51:11;;;;;;;16.17;11.93;;;;;;;14.71;100.00;96567.19;1044050;28;20029;-68
2021/09/07 00:51:42;;;;;;;20.90;12.53;;;;;;;14.72;100.00;96568.78;1044054;28;20013;-67
2021/09/07 00:52:12;;;;;;;16.27;12.87;;;;;;;14.72;100.00;96561.53;1044077;28;20015;-68
2021/09/07 00:52:43;;;;;;;19.17;12.20;;;;;;;14.72;100.00;96568.78;1039895;28;20021;-68
2021/09/07 00:53:15;;;;;;;15.00;11.57;;;;;;;14.75;100.00;96573.63;1035934;28;20014;-68
2021/09/07 00:53:45;;;;;;;17.25;12.70;;;;;;;14.72;100.00;96564.22;1039962;28;20013;-68
2021/09/07 00:54:16;;;;;;;19.53;12.97;;;;;;;14.71;100.00;96565.31;1036216;28;20014;-68
2021/09/07 00:54:46;;;;;;;16.43;11.90;;;;;;;14.73;100.00;96560.44;1036221;28;20061;-68
2021/09/07 00:55:17;;;;;;;18.03;12.47;;;;;;;14.75;100.00;96565.53;1035901;28;20439;-68
2021/09/07 00:55:47;;;;;;;17.10;11.90;;;;;;;14.78;100.00;96562.28;1032033;28;20349;-68
2021/09/07 00:56:18;;;;;;;17.67;12.17;;;;;;;14.79;100.00;96569.25;1031915;28;20030;-68
2021/09/07 00:56:48;;;;;;;15.43;11.43;;;;;;;14.80;100.00;96560.13;1031958;28;20014;-68
2021/09/07 00:57:18;;;;;;;19.00;12.03;;;;;;;14.77;100.00;96564.16;1031853;28;20009;-68
2021/09/07 00:57:49;;;;;;;18.77;11.63;;;;;;;14.74;100.00;96563.91;1032029;28;20022;-68
2021/09/07 00:58:19;;;;;;;17.47;11.27;;;;;;;14.80;100.00;96560.91;1035976;28;20014;-68
2021/09/07 00:58:50;;;;;;;18.53;12.10;;;;;;;14.78;100.00;96567.66;1040086;28;20028;-68
2021/09/07 00:59:20;;;;;;;15.27;12.20;;;;;;;14.80;100.00;96558.22;1039911;28;20017;-68
2021/09/07 00:59:51;;;;;;;17.80;11.97;;;;;;;14.83;100.00;96551.47;1040129;28;20029;-67
2021/09/07 01:00:22;;;;;;;16.67;11.80;;;;;;;14.83;100.00;96556.84;1039898;28;20092;-68
2021/09/07 01:00:52;;;;;;;17.43;12.20;;;;;;;14.79;100.00;96558.50;1035996;28;20268;-68
2021/09/07 01:01:22;;;;;;;15.27;11.33;;;;;;;14.75;100.00;96560.97;1039931;28;20009;-67
2021/09/07 01:01:53;;;;;;;17.17;12.30;;;;;;;14.77;100.00;96557.97;1035952;28;20022;-67
2021/09/07 01:02:23;;;;;;;18.90;12.03;;;;;;;14.78;100.00;96557.69;1040096;28;20022;-68
2021/09/07 01:02:54;;;;;;;15.70;11.83;;;;;;;14.81;100.00;96557.13;1044079;28;20029;-68
2021/09/07 01:03:24;;;;;;;15.37;12.00;;;;;;;14.81;100.00;96556.34;1043693;28;20485;-68
2021/09/07 01:03:55;;;;;;;15.40;12.00;;;;;;;14.78;100.00;96557.69;1044451;28;20404;-68
2021/09/07 01:04:25;;;;;;;17.47;11.57;;;;;;;14.76;100.00;96556.38;1044399;28;20470;-67
2021/09/07 01:04:55;;;;;;;15.43;11.67;;;;;;;14.74;100.00;96558.53;1044369;28;20017;-67
2021/09/07 01:05:26;;;;;;;19.37;12.87;;;;;;;14.72;100.00;96560.72;1044505;28;20087;-68
2021/09/07 01:05:56;;;;;;;16.40;12.27;;;;;;;14.75;100.00;96560.97;1044436;28;20017;-68
2021/09/07 01:06:27;;;;;;;18.80;12.90;;;;;;;14.76;100.00;96561.75;1044412;28;20017;-68
2021/09/07 01:06:57;;;;;;;20.47;11.93;;;;;;;14.75;100.00;96560.97;1044384;28;20017;-68
2021/09/07 01:07:28;;;;;;;18.93;11.90;;;;;;;14.76;100.00;96559.88;1044422;28;20024;-68
2021/09/07 01:07:58;;;;;;;15.47;12.30;;;;;;;14.78;100.00;96551.50;1044368;28;20040;-68
2021/09/07 01:08:29;;;;;;;17.43;11.97;;;;;;;14.78;100.00;96560.38;1044318;28;20013;-68
2021/09/07 01:08:59;;;;;;;16.23;11.97;;;;;;;14.79;100.00;96566.56;1044039;28;20017;-68
2021/09/07 01:09:30;;;;;;;16.13;12.10;;;;;;;14.76;100.00;96567.16;1044084;28;20020;-68
2021/09/07 01:10:02;;;;;;;19.57;13.10;;;;;;;14.70;100.00;96561.00;1044071;28;20025;-68
2021/09/07 01:10:32;;;;;;;19.42;12.20;;;;;;;14.70;100.00;96558.31;1044118;28;20029;-68
2021/09/07 01:11:02;;;;;;;18.07;12.67;;;;;;;14.68;100.00;96559.66;1044002;28;20097;-68
2021/09/07 01:11:33;;;;;;;17.77;12.17;;;;;;;14.68;100.00;96556.97;1043981;28;20025;-68
2021/09/07 01:12:04;;;;;;;16.90;11.50;;;;;;;14.71;100.00;96562.59;1039885;28;20028;-68
2021/09/07 01:12:34;;;;;;;17.67;12.67;;;;;;;14.71;100.00;96562.59;1040090;28;20104;-68
2021/09/07 01:13:05;;;;;;;15.97;11.60;;;;;;;14.71;100.00;96565.31;1039887;28;20048;-68
2021/09/07 01:13:35;;;;;;;16.27;12.00;;;;;;;14.71;100.00;96562.59;1035930;28;20076;-68
2021/09/07 01:14:06;;;;;;;14.53;11.00;;;;;;;14.71;100.00;96567.19;1039936;28;20029;-67
2021/09/07 01:14:38;;;;;;;16.17;12.10;;;;;;;14.73;100.00;96559.63;1040050;28;20028;-68
2021/09/07 01:15:08;;;;;;;18.10;12.73;;;;;;;14.73;100.00;96565.81;1043994;28;20017;-68
2021/09/07 01:15:39;;;;;;;17.53;12.23;;;;;;;14.71;100.00;96567.19;1044347;28;20389;-68
2021/09/07 01:16:09;;;;;;;17.47;11.73;;;;;;;14.64;100.00;96562.16;1039832;28;20018;-68
2021/09/07 01:16:40;;;;;;;19.77;12.57;;;;;;;14.65;100.00;96562.94;1040004;28;20029;-68
2021/09/07 01:17:15;;;;;;;17.50;12.40;;;;;;;14.60;100.00;96557.59;1039962;28;20017;-69
2021/09/07 01:17:45;;;;;;;16.95;12.45;;;;;;;14.61;100.00;96559.19;1041260;28;20437;-68
2021/09/07 01:18:15;;;;;;;16.23;11.90;;;;;;;14.61;100.00;96564.59;1048226;28;20024;-68
2021/09/07 01:18:46;;;;;;;17.87;12.33;;;;;;;14.58;100.00;96560.56;1044037;28;20049;-68
2021/09/07 01:19:16;;;;;;;19.93;12.40;;;;;;;14.56;100.00;96557.34;1044064;28;20059;-68
2021/09/07 01:19:48;;;;;;;17.93;12.17;;;;;;;14.52;100.00;96562.47;1043954;28;20047;-68
2021/09/07 01:20:19;;;;;;;17.83;12.60;;;;;;;14.45;100.00;96561.97;1044345;28;20075;-68
2021/09/07 01:20:49;;;;;;;16.20;12.43;;;;;;;14.46;100.00;96566.28;1044005;28;20386;-68
2021/09/07 01:21:20;;;;;;;20.50;11.90;;;;;;;14.46;100.00;96568.16;1044107;28;20044;-68
2021/09/07 01:21:50;;;;;;;17.10;11.87;;;;;;;14.47;100.00;96561.69;1039893;28;20410;-68
2021/09/07 01:22:21;;;;;;;16.47;11.67;;;;;;;14.48;100.00;96566.81;1039905;28;20037;-68
2021/09/07 01:22:51;;;;;;;15.97;11.67;;;;;;;14.44;100.00;96562.28;1039948;28;20021;-68
2021/09/07 01:23:22;;;;;;;16.10;12.20;;;;;;;14.41;100.00;96566.31;1031853;28;20022;-68
2021/09/07 01:23:52;;;;;;;18.23;12.57;;;;;;;14.45;100.00;96563.88;1031806;28;20026;-68
2021/09/07 01:24:26;;;;;;;17.93;12.30;;;;;;;14.44;100.00;96571.13;1031954;28;20030;-68
2021/09/07 01:24:57;;;;;;;18.30;12.43;;;;;;;14.44;100.00;96568.44;1040437;28;20029;-68
2021/09/07 01:25:27;;;;;;;16.70;12.63;;;;;;;14.40;100.00;96564.72;1044362;28;20036;-68
2021/09/07 01:25:58;;;;;;;16.73;12.27;;;;;;;14.38;100.00;96564.16;1044268;28;20079;-67
2021/09/07 01:26:28;;;;;;;16.73;11.63;;;;;;;14.41;100.00;96560.13;1044344;28;20071;-68
2021/09/07 01:27:01;;;;;;;18.50;12.80;;;;;;;14.39;100.00;96568.47;1044325;28;20025;-68
2021/09/07 01:27:31;;;;;;;17.08;12.15;;;;;;;14.36;100.00;96566.34;1044340;28;20059;-68
2021/09/07 01:28:02;;;;;;;16.83;12.17;;;;;;;14.40;100.00;96563.91;1048131;28;20032;-68
2021/09/07 01:28:33;;;;;;;21.17;12.20;;;;;;;14.38;100.00;96566.06;1044054;28;20460;-67
2021/09/07 01:29:05;;;;;;;18.50;12.15;;;;;;;14.41;100.00;96566.31;1044004;28;20029;-68
2021/09/07 01:29:36;;;;;;;17.35;12.10;;;;;;;14.46;100.00;96571.66;1044050;28;20074;-68
2021/09/07 01:30:07;;;;;;;16.70;12.27;;;;;;;14.43;100.00;96572.19;1043980;28;20549;-68
2021/09/07 01:30:38;;;;;;;17.88;12.52;;;;;;;14.41;100.00;96566.31;1044428;28;20033;-69
2021/09/07 01:31:10;;;;;;;20.37;12.40;;;;;;;14.43;100.00;96569.50;1044230;28;20500;-68
2021/09/07 01:31:40;;;;;;;16.42;11.98;;;;;;;14.44;100.00;96570.34;1043963;28;20056;-68
2021/09/07 01:32:11;;;;;;;17.53;11.97;;;;;;;14.45;100.00;96574.63;1039842;28;20022;-68
2021/09/07 01:32:41;;;;;;;19.33;11.90;;;;;;;14.47;100.00;96575.13;1039913;28;20101;-68
2021/09/07 01:33:12;;;;;;;18.97;11.67;;;;;;;14.46;100.00;96571.66;1040149;28;20017;-67
2021/09/07 01:33:47;;;;;;;15.50;11.47;;;;;;;14.43;100.00;96569.50;1039941;28;20013;-68
2021/09/07 01:34:23;;;;;;;19.00;12.13;;;;;;;14.40;100.00;96575.47;1043945;28;20049;-67
2021/09/07 01:34:53;;;;;;;19.50;12.15;;;;;;;14.40;100.00;96566.59;1043699;28;20029;-68
2021/09/07 01:35:24;;;;;;;14.47;11.40;;;;;;;14.39;100.00;96562.31;1044149;28;20382;-68
2021/09/07 01:35:56;;;;;;;17.20;12.20;;;;;;;14.38;100.00;96572.22;1044314;28;20411;-68
2021/09/07 01:36:26;;;;;;;17.35;11.82;;;;;;;14.39;100.00;96565.78;1043914;28;20017;-68
2021/09/07 01:36:57;;;;;;;16.03;11.67;;;;;;;14.40;100.00;96574.66;1044020;28;20497;-68
2021/09/07 01:37:27;;;;;;;20.10;11.60;;;;;;;14.42;100.00;96573.28;1044039;28;20080;-68
2021/09/07 01:37:58;;;;;;;19.40;12.30;;;;;;;14.46;100.00;96568.16;1044018;28;20028;-68
2021/09/07 01:38:29;;;;;;;16.27;11.70;;;;;;;14.47;100.00;96565.22;1044312;28;20009;-68
2021/09/07 01:38:59;;;;;;;17.50;11.40;;;;;;;14.47;100.00;96570.59;1044034;28;20359;-68
2021/09/07 01:39:29;;;;;;;16.40;11.87;;;;;;;14.48;100.00;96564.13;1044007;28;20259;-68
2021/09/07 01:40:00;;;;;;;16.80;11.57;;;;;;;14.48;100.00;96566.81;1043959;28;20013;-68
2021/09/07 01:40:30;;;;;;;16.67;11.83;;;;;;;14.51;100.00;96568.16;1043991;28;20377;-68
2021/09/07 01:41:01;;;;;;;16.37;11.80;;;;;;;14.48;100.00;96566.81;1044321;28;20492;-68
2021/09/07 01:41:31;;;;;;;16.00;11.60;;;;;;;14.47;100.00;96575.13;1039737;28;20017;-67
2021/09/07 01:42:02;;;;;;;15.33;11.03;;;;;;;14.47;100.00;96567.91;1039582;28;20030;-68
2021/09/07 01:42:32;;;;;;;18.27;11.80;;;;;;;14.46;100.00;96563.59;1039790;28;20120;-68
2021/09/07 01:43:02;;;;;;;16.33;11.87;;;;;;;14.46;100.00;96568.16;1039885;28;20056;-67
2021/09/07 01:43:33;;;;;;;16.30;11.47;;;;;;;14.47;100.00;96575.13;1044026;28;20067;-68
2021/09/07 01:44:03;;;;;;;18.77;12.17;;;;;;;14.44;100.00;96565.75;1044014;28;20017;-67
2021/09/07 01:44:34;;;;;;;15.77;11.27;;;;;;;14.44;100.00;96567.66;1043909;28;20021;-68
2021/09/07 01:45:05;;;;;;;15.87;11.90;;;;;;;14.49;100.00;96571.13;1039161;28;20022;-68
2021/09/07 01:45:36;;;;;;;20.23;12.52;;;;;;;14.48;100.00;96566.81;1039899;28;20117;-68
2021/09/07 01:46:06;;;;;;;16.43;11.60;;;;;;;14.50;100.00;96580.00;1039854;28;20028;-68
2021/09/07 01:46:37;;;;;;;18.60;11.87;;;;;;;14.49;100.00;96573.81;1027879;28;20089;-68
2021/09/07 01:47:10;;;;;;;16.63;11.03;;;;;;;14.51;100.00;96570.84;1031777;28;20010;-68
2021/09/07 01:47:41;;;;;;;16.42;11.75;;;;;;;14.51;100.00;96576.22;1023663;28;20023;-68
2021/09/07 01:48:13;;;;;;;18.33;12.10;;;;;;;14.52;100.00;96573.25;1025239;28;20047;-68
2021/09/07 01:48:43;;;;;;;18.52;12.15;;;;;;;14.50;100.00;96575.41;1032370;28;20065;-68
2021/09/07 01:49:14;;;;;;;20.53;12.73;;;;;;;14.50;100.00;96569.25;1036084;28;20108;-68
2021/09/07 01:49:45;;;;;;;16.37;11.23;;;;;;;14.50;100.00;96567.34;1035688;28;20010;-68
2021/09/07 01:50:15;;;;;;;15.70;11.53;;;;;;;14.52;100.00;96573.25;1035883;28;20018;-67
2021/09/07 01:50:46;;;;;;;17.23;12.47;;;;;;;14.47;100.00;96573.28;1035828;28;20014;-67
2021/09/07 01:51:16;;;;;;;16.63;11.57;;;;;;;14.46;100.00;96574.34;1039984;28;20108;-67
2021/09/07 01:51:47;;;;;;;16.07;11.37;;;;;;;14.46;100.00;96573.53;1031590;28;20375;-67
2021/09/07 01:52:17;;;;;;;21.17;11.97;;;;;;;14.48;100.00;96574.88;1031889;28;20537;-68
2021/09/07 01:52:48;;;;;;;17.63;12.07;;;;;;;14.45;100.00;96571.94;1031653;28;20376;-68
2021/09/07 01:53:18;;;;;;;17.83;12.07;;;;;;;14.40;100.00;96572.78;1031913;28;20035;-68
2021/09/07 01:53:49;;;;;;;15.83;12.27;;;;;;;14.34;100.00;96565.84;1039825;28;20014;-68
2021/09/07 01:54:21;;;;;;;15.77;11.90;;;;;;;14.37;100.00;96569.84;1039883;28;20510;-68
2021/09/07 01:54:51;;;;;;;18.20;11.82;;;;;;;14.33;100.00;96566.91;1043893;28;20025;-68
2021/09/07 01:55:21;;;;;;;18.97;12.37;;;;;;;14.27;100.00;96568.81;1040140;28;20418;-67
2021/09/07 01:55:52;;;;;;;16.20;12.23;;;;;;;14.23;100.00;96567.00;1043929;28;20532;-67
2021/09/07 01:56:22;;;;;;;17.00;12.53;;;;;;;14.18;100.00;96569.72;1043960;28;20044;-68
2021/09/07 01:56:53;;;;;;;16.83;12.60;;;;;;;14.14;100.00;96565.97;1039921;28;20493;-68
2021/09/07 01:57:23;;;;;;;19.13;12.20;;;;;;;14.12;100.00;96570.78;1043924;28;20029;-69
2021/09/07 01:57:54;;;;;;;17.70;12.93;;;;;;;14.05;100.00;96563.84;1043914;28;20033;-69
2021/09/07 01:58:24;;;;;;;20.27;12.83;;;;;;;13.99;100.00;96564.97;1040024;28;20033;-69
2021/09/07 01:58:55;;;;;;;17.00;13.20;;;;;;;13.95;100.00;96566.59;1039687;28;20489;-69
2021/09/07 01:59:25;;;;;;;16.90;13.23;;;;;;;13.89;100.00;96562.34;1039935;28;20506;-69
2021/09/07 01:59:55;;;;;;;20.07;13.17;;;;;;;13.86;100.00;96565.56;1031441;28;20042;-69
2021/09/07 02:00:26;;;;;;;17.60;12.70;;;;;;;13.82;100.00;96561.00;1036194;28;20117;-69
2021/09/07 02:00:56;;;;;;;16.43;13.03;;;;;;;13.78;100.00;96566.16;1036571;28;20030;-69
2021/09/07 02:01:27;;;;;;;17.30;13.50;;;;;;;13.76;100.00;96558.34;1036623;28;20025;-69
2021/09/07 02:01:57;;;;;;;17.03;12.97;;;;;;;13.68;100.00;96564.31;1042632;28;20355;-67
2021/09/07 02:02:27;;;;;;;21.67;13.43;;;;;;;13.69;100.00;96565.13;1044845;28;20094;-68
2021/09/07 02:02:58;;;;;;;19.57;13.53;;;;;;;13.74;100.00;96568.59;1045136;28;20067;-67
2021/09/07 02:03:28;;;;;;;16.80;12.50;;;;;;;13.76;100.00;96568.31;1045014;28;20040;-67
2021/09/07 02:03:59;;;;;;;18.23;12.93;;;;;;;13.78;100.00;96561.59;1044636;28;20552;-68
2021/09/07 02:04:29;;;;;;;17.87;13.70;;;;;;;13.79;100.00;96562.38;1040646;28;20029;-69
2021/09/07 02:05:00;;;;;;;19.20;12.10;;;;;;;13.80;100.00;96566.69;1040639;28;20437;-68
2021/09/07 02:05:30;;;;;;;17.83;12.40;;;;;;;13.81;100.00;96565.59;1040724;28;20026;-68
2021/09/07 02:06:00;;;;;;;19.77;13.07;;;;;;;13.84;100.00;96566.94;1044791;28;20033;-67
2021/09/07 02:06:31;;;;;;;17.93;12.97;;;;;;;13.86;100.00;96564.75;1044759;28;20024;-67
2021/09/07 02:07:01;;;;;;;16.10;11.83;;;;;;;13.89;100.00;96561.53;1044703;28;20020;-67
2021/09/07 02:07:32;;;;;;;15.70;12.10;;;;;;;13.91;100.00;96560.16;1044705;28;20052;-67
2021/09/07 02:08:02;;;;;;;16.37;11.77;;;;;;;13.92;100.00;96564.47;1045060;28;20460;-67
2021/09/07 02:08:32;;;;;;;17.63;12.00;;;;;;;13.95;100.00;96553.16;1045022;28;20424;-68
2021/09/07 02:09:04;;;;;;;16.10;11.77;;;;;;;13.95;100.00;96557.72;1045001;28;20421;-68
2021/09/07 02:09:34;;;;;;;18.27;13.13;;;;;;;13.99;100.00;96551.53;1044714;28;20025;-68
2021/09/07 02:10:06;;;;;;;15.70;11.87;;;;;;;14.03;100.00;96557.16;1044694;28;20033;-68
2021/09/07 02:10:36;;;;;;;14.90;11.95;;;;;;;14.03;100.00;96552.59;1040527;28;20043;-68
2021/09/07 02:11:07;;;;;;;17.07;12.13;;;;;;;14.05;100.00;96561.16;1040991;28;20025;-68
2021/09/07 02:11:37;;;;;;;16.97;12.30;;;;;;;14.05;100.00;96553.09;1040517;28;20025;-68
2021/09/07 02:12:08;;;;;;;19.93;13.67;;;;;;;14.07;100.00;96552.00;1040587;28;20021;-68
2021/09/07 02:12:38;;;;;;;15.87;12.33;;;;;;;14.05;100.00;96561.16;1040668;28;20025;-68
2021/09/07 02:13:09;;;;;;;18.67;12.53;;;;;;;14.05;100.00;96544.25;1044825;28;20025;-68
2021/09/07 02:13:39;;;;;;;16.73;12.23;;;;;;;14.06;100.00;96556.59;1048809;28;20021;-67
2021/09/07 02:14:10;;;;;;;18.80;13.03;;;;;;;14.08;100.00;96557.13;1048818;28;20028;-67
2021/09/07 02:14:40;;;;;;;21.40;12.40;;;;;;;14.10;100.00;96557.66;1044696;28;20028;-69
2021/09/07 02:15:11;;;;;;;17.87;11.87;;;;;;;14.09;100.00;96556.03;1040356;28;20025;-67
2021/09/07 02:15:41;;;;;;;16.73;12.03;;;;;;;14.03;100.00;96555.28;1036539;28;20030;-68
2021/09/07 02:16:11;;;;;;;16.97;12.43;;;;;;;14.10;100.00;96563.03;1032480;28;20030;-68
2021/09/07 02:16:42;;;;;;;16.13;11.67;;;;;;;14.13;100.00;96556.31;1036483;28;20018;-68
2021/09/07 02:17:12;;;;;;;16.70;12.93;;;;;;;14.12;100.00;96562.72;1036572;28;20101;-68
2021/09/07 02:17:43;;;;;;;19.77;12.63;;;;;;;14.14;100.00;96558.69;1040659;28;20025;-68
2021/09/07 02:18:13;;;;;;;17.00;12.40;;;;;;;14.17;100.00;96554.63;1040652;28;20017;-68
2021/09/07 02:18:43;;;;;;;18.10;12.27;;;;;;;14.17;100.00;96557.31;1040594;28;20013;-68
2021/09/07 02:19:14;;;;;;;15.63;11.40;;;;;;;14.17;100.00;96560.81;1040549;28;20021;-68